Terminal Aerodrome Forecast
Issued by NWS Sioux Falls, SD

Current Version | Previous Version | Text Only | Print | Product List | Glossary On
Versions: 1 2 3 4 5 6 7 8 9 10 11 12 13 14 15 16 17
000
FTUS43 KFSD 250528
TAFFSD
TAF
KFSD 250528Z 2506/2606 07010KT P6SM OVC015
      TEMPO 2506/2508 5SM -TSRA OVC015CB
     FM250900 07012KT P6SM OVC007
     FM251600 06013KT P6SM OVC018
     FM252000 07013KT P6SM BKN035=

USA.gov is the U.S. government's official web portal to all federal, state and local government web resources and services.